createdAt,value
2019-03-08T00:00:43.925Z,949.25
2019-03-08T00:01:53.875Z,949.28
2019-03-08T00:03:03.831Z,949.23
2019-03-08T00:04:13.887Z,949.26
2019-03-08T00:05:23.847Z,949.21
2019-03-08T00:06:33.802Z,949.18
2019-03-08T00:07:43.775Z,949.29
2019-03-08T00:08:53.484Z,949.29
2019-03-08T00:10:03.550Z,949.3
2019-03-08T00:11:13.528Z,949.19
2019-03-08T00:12:23.494Z,949.23
2019-03-08T00:13:33.461Z,949.27
2019-03-08T00:14:43.414Z,949.23
2019-03-08T00:15:53.463Z,949.22
2019-03-08T00:17:03.430Z,949.22
2019-03-08T00:18:13.399Z,949.17
2019-03-08T00:19:23.354Z,949.19
2019-03-08T00:20:33.352Z,949.17
2019-03-08T00:21:43.447Z,949.2
2019-03-08T00:22:53.413Z,949.17
2019-03-08T00:24:03.400Z,949.13
2019-03-08T00:25:13.346Z,949.17
2019-03-08T00:26:23.306Z,949.24
2019-03-08T00:27:33.305Z,949.18
2019-03-08T00:28:43.262Z,949.12
2019-03-08T00:29:53.239Z,949.17
2019-03-08T00:31:03.232Z,949.16
2019-03-08T00:32:13.263Z,949.14
2019-03-08T00:33:23.315Z,949.17
2019-03-08T00:34:33.281Z,949.11
2019-03-08T00:35:43.245Z,949.17
2019-03-08T00:36:53.214Z,949.15
2019-03-08T00:38:03.175Z,949.2
2019-03-08T00:39:13.273Z,949.19
2019-03-08T00:40:23.335Z,949.24
2019-03-08T00:41:33.745Z,949.13
2019-03-08T00:42:44.021Z,949.25
2019-03-08T00:43:54.507Z,949.21
2019-03-08T00:45:05.163Z,949.21
2019-03-08T00:46:15.551Z,949.17
2019-03-08T00:47:25.862Z,949.24
2019-03-08T00:48:36.097Z,949.18
2019-03-08T00:49:46.239Z,949.2
2019-03-08T00:50:56.306Z,949.2
2019-03-08T00:52:06.022Z,949.17
2019-03-08T00:53:15.981Z,949.17
2019-03-08T00:54:25.932Z,949.17
2019-03-08T00:55:35.903Z,949.13
2019-03-08T00:56:45.973Z,949.21
2019-03-08T00:57:55.933Z,949.17
2019-03-08T00:59:05.899Z,949.21
2019-03-08T01:00:15.863Z,949.18
2019-03-08T01:01:25.888Z,949.2
2019-03-08T01:02:35.944Z,949.22
2019-03-08T01:03:45.905Z,949.15
2019-03-08T01:04:55.868Z,949.17
2019-03-08T01:06:05.825Z,949.24
2019-03-08T01:07:15.536Z,949.19
2019-03-08T01:08:25.543Z,949.24
2019-03-08T01:09:35.508Z,949.17
2019-03-08T01:10:45.465Z,949.17
2019-03-08T01:11:55.418Z,949.23
2019-03-08T01:13:05.386Z,949.19
2019-03-08T01:14:15.438Z,949.17
2019-03-08T01:15:25.403Z,949.19
2019-03-08T01:16:35.365Z,949.2
2019-03-08T01:17:45.314Z,949.26
2019-03-08T01:18:55.277Z,949.23
2019-03-08T01:20:05.386Z,949.21
2019-03-08T01:21:15.335Z,949.22
2019-03-08T01:22:25.301Z,949.18
2019-03-08T01:23:35.245Z,949.21
2019-03-08T01:24:45.200Z,949.24
2019-03-08T01:25:55.262Z,949.2
2019-03-08T01:27:05.236Z,949.18
2019-03-08T01:28:15.190Z,949.16
2019-03-08T01:29:25.159Z,949.21
2019-03-08T01:30:35.113Z,949.22
2019-03-08T01:31:45.177Z,949.12
2019-03-08T01:32:56.599Z,949.19
2019-03-08T01:34:06.862Z,949.25
2019-03-08T01:35:17.251Z,949.18
2019-03-08T01:36:28.017Z,949.12
2019-03-08T01:37:38.416Z,949.2
2019-03-08T01:38:49.120Z,949.16
2019-03-08T01:39:59.464Z,949.25
2019-03-08T01:41:09.578Z,949.28
2019-03-08T01:42:19.643Z,949.2
2019-03-08T01:43:29.697Z,949.19
2019-03-08T01:44:39.405Z,949.21
2019-03-08T01:45:49.368Z,949.3
2019-03-08T01:46:59.323Z,949.21
2019-03-08T01:48:09.280Z,949.23
2019-03-08T01:49:19.093Z,949.23
2019-03-08T01:50:29.059Z,949.23
2019-03-08T01:51:39.049Z,949.2
2019-03-08T01:52:48.998Z,949.16
2019-03-08T01:53:58.947Z,949.28
2019-03-08T01:55:08.998Z,949.36
2019-03-08T01:56:18.956Z,949.13
2019-03-08T01:57:28.902Z,949.19
2019-03-08T01:58:38.857Z,949.18
2019-03-08T01:59:48.827Z,949.21
2019-03-08T02:00:58.771Z,949.19
2019-03-08T02:02:10.438Z,949.19
2019-03-08T02:03:20.478Z,949.24
2019-03-08T02:04:30.432Z,949.24
2019-03-08T02:05:40.395Z,949.16
2019-03-08T02:06:50.408Z,949.18
2019-03-08T02:08:00.348Z,949.2
2019-03-08T02:09:10.307Z,949.28
2019-03-08T02:10:20.255Z,949.2
2019-03-08T02:11:30.210Z,949.24
2019-03-08T02:12:42.026Z,949.19
2019-03-08T02:13:52.147Z,949.25
2019-03-08T02:15:01.860Z,949.2
2019-03-08T02:16:11.810Z,949.19
2019-03-08T02:17:21.759Z,949.22
2019-03-08T02:18:31.767Z,949.24
2019-03-08T02:19:41.737Z,949.26
2019-03-08T02:20:52.347Z,949.28
2019-03-08T02:22:11.513Z,949.3
2019-03-08T02:23:24.058Z,949.25
2019-03-08T02:24:34.212Z,949.28
2019-03-08T02:25:45.660Z,949.36
2019-03-08T02:26:55.717Z,949.34
2019-03-08T02:28:05.706Z,949.34
2019-03-08T02:29:16.430Z,949.35
2019-03-08T02:30:26.400Z,949.38
2019-03-08T02:31:36.117Z,949.38
2019-03-08T02:32:46.079Z,949.37
2019-03-08T02:33:56.032Z,949.38
2019-03-08T02:35:05.977Z,949.41
2019-03-08T02:36:15.954Z,949.4
2019-03-08T02:37:25.938Z,949.41
2019-03-08T02:38:35.900Z,949.35
2019-03-08T02:39:45.878Z,949.45
2019-03-08T02:40:55.934Z,949.34
2019-03-08T02:42:05.888Z,949.37
2019-03-08T02:43:15.868Z,949.41
2019-03-08T02:44:25.824Z,949.38
2019-03-08T02:45:35.770Z,949.4
2019-03-08T02:46:45.831Z,949.44
2019-03-08T02:47:55.775Z,949.44
2019-03-08T02:49:06.421Z,949.31
2019-03-08T02:50:16.434Z,949.44
2019-03-08T02:51:26.407Z,949.41
2019-03-08T02:52:36.516Z,949.31
2019-03-08T02:53:46.218Z,949.43
2019-03-08T02:54:56.162Z,949.37
2019-03-08T02:56:06.126Z,949.41
2019-03-08T02:57:16.074Z,949.41
2019-03-08T02:58:26.075Z,949.42
2019-03-08T02:59:36.027Z,949.45
2019-03-08T03:00:45.989Z,949.4
2019-03-08T03:01:55.961Z,949.47
2019-03-08T03:03:05.928Z,949.51
2019-03-08T03:04:15.981Z,949.49
2019-03-08T03:05:25.932Z,949.52
2019-03-08T03:06:37.354Z,949.45
2019-03-08T03:07:47.660Z,949.53
2019-03-08T03:08:58.324Z,949.54
2019-03-08T03:10:08.760Z,949.49
2019-03-08T03:11:19.212Z,949.57
2019-03-08T03:12:29.325Z,949.57
2019-03-08T03:13:39.527Z,949.5
2019-03-08T03:14:49.472Z,949.5
2019-03-08T03:15:59.485Z,949.48
2019-03-08T03:17:09.450Z,949.49
2019-03-08T03:18:19.403Z,949.48
2019-03-08T03:19:29.427Z,949.52
2019-03-08T03:20:39.381Z,949.53
2019-03-08T03:21:49.460Z,949.52
2019-03-08T03:22:59.418Z,949.57
2019-03-08T03:24:09.384Z,949.58
2019-03-08T03:25:19.345Z,949.59
2019-03-08T03:26:29.310Z,949.58
2019-03-08T03:27:39.321Z,949.66
2019-03-08T03:28:49.293Z,949.6
2019-03-08T03:29:59.231Z,949.67
2019-03-08T03:31:09.207Z,949.68
2019-03-08T03:32:19.175Z,949.67
2019-03-08T03:33:29.252Z,949.69
2019-03-08T03:34:39.212Z,949.75
2019-03-08T03:35:49.169Z,949.72
2019-03-08T03:36:59.131Z,949.72
2019-03-08T03:38:09.099Z,949.78
2019-03-08T03:39:18.947Z,949.83
2019-03-08T03:40:28.941Z,949.75
2019-03-08T03:41:38.912Z,949.74
2019-03-08T03:42:48.856Z,949.86
2019-03-08T03:43:58.831Z,949.83
2019-03-08T03:45:08.895Z,949.87
2019-03-08T03:46:18.864Z,949.74
2019-03-08T03:47:28.826Z,949.8
2019-03-08T03:48:38.798Z,949.81
2019-03-08T03:49:48.743Z,949.82
2019-03-08T03:50:58.755Z,949.76
2019-03-08T03:52:08.711Z,949.83
2019-03-08T03:53:18.667Z,949.88
2019-03-08T03:54:28.626Z,949.91
2019-03-08T03:55:38.582Z,949.91
2019-03-08T03:56:48.579Z,949.92
2019-03-08T03:57:58.837Z,949.94
2019-03-08T03:59:10.950Z,949.87
2019-03-08T04:00:21.469Z,949.93
2019-03-08T04:01:31.824Z,949.92
2019-03-08T04:02:42.308Z,949.93
2019-03-08T04:03:52.727Z,949.95
2019-03-08T04:05:02.923Z,949.98
2019-03-08T04:06:13.077Z,949.98
2019-03-08T04:07:23.038Z,949.97
2019-03-08T04:08:32.803Z,950.05
2019-03-08T04:09:42.829Z,949.98
2019-03-08T04:10:52.786Z,950.01
2019-03-08T04:12:02.737Z,950.01
2019-03-08T04:13:12.694Z,950.02
2019-03-08T04:14:22.699Z,949.99
2019-03-08T04:15:32.673Z,950.02
2019-03-08T04:16:42.616Z,950.03
2019-03-08T04:17:52.584Z,950.07
2019-03-08T04:19:02.548Z,950.08
2019-03-08T04:20:12.594Z,950.08
2019-03-08T04:21:22.572Z,950.05
2019-03-08T04:22:32.527Z,950.04
2019-03-08T04:23:42.490Z,949.98
2019-03-08T04:24:52.473Z,950.1
2019-03-08T04:26:02.563Z,950.04
2019-03-08T04:27:12.531Z,950.01
2019-03-08T04:28:22.482Z,950
2019-03-08T04:29:32.445Z,950.01
2019-03-08T04:30:42.397Z,950
2019-03-08T04:31:52.448Z,950.04
2019-03-08T04:33:02.399Z,950.09
2019-03-08T04:34:12.350Z,950.07
2019-03-08T04:35:22.055Z,950.09
2019-03-08T04:36:32.020Z,950.09
2019-03-08T04:37:41.866Z,950.15
2019-03-08T04:38:51.840Z,950.17
2019-03-08T04:40:01.795Z,950.18
2019-03-08T04:41:11.752Z,950.18
2019-03-08T04:42:21.708Z,950.2
2019-03-08T04:43:31.767Z,950.17
2019-03-08T04:44:41.708Z,950.24
2019-03-08T04:45:51.659Z,950.27
2019-03-08T04:47:01.616Z,950.21
2019-03-08T04:48:11.567Z,950.29
2019-03-08T04:49:21.572Z,950.3
2019-03-08T04:50:31.510Z,950.28
2019-03-08T04:51:41.482Z,950.36
2019-03-08T04:52:53.783Z,950.39
2019-03-08T04:54:04.207Z,950.26
2019-03-08T04:55:16.737Z,950.4
2019-03-08T04:56:27.838Z,950.4
2019-03-08T04:57:38.183Z,950.43
2019-03-08T04:58:48.365Z,950.43
2019-03-08T04:59:58.327Z,950.4
2019-03-08T05:01:08.320Z,950.44
2019-03-08T05:02:18.266Z,950.5
2019-03-08T05:03:28.225Z,950.44
2019-03-08T05:04:38.180Z,950.44
2019-03-08T05:05:48.151Z,950.44
2019-03-08T05:06:58.218Z,950.47
2019-03-08T05:08:08.169Z,950.59
2019-03-08T05:09:18.117Z,950.5
2019-03-08T05:10:28.093Z,950.49
2019-03-08T05:11:38.056Z,950.61
2019-03-08T05:12:48.149Z,950.54
2019-03-08T05:13:58.133Z,950.56
2019-03-08T05:15:08.129Z,950.51
2019-03-08T05:16:18.102Z,950.52
2019-03-08T05:17:28.057Z,950.52
2019-03-08T05:18:38.024Z,950.49
2019-03-08T05:19:47.986Z,950.56
2019-03-08T05:20:57.941Z,950.63
2019-03-08T05:22:07.902Z,950.67
2019-03-08T05:23:17.847Z,950.44
2019-03-08T05:24:27.891Z,950.62
2019-03-08T05:25:37.873Z,950.58
2019-03-08T05:26:47.861Z,950.6
2019-03-08T05:27:57.811Z,950.54
2019-03-08T05:29:07.904Z,950.64
2019-03-08T05:30:17.919Z,950.73
2019-03-08T05:31:27.878Z,950.74
2019-03-08T05:32:37.842Z,950.85
2019-03-08T05:33:47.841Z,950.85
2019-03-08T05:34:57.812Z,950.84
2019-03-08T05:36:07.978Z,950.81
2019-03-08T05:37:17.936Z,950.9
2019-03-08T05:38:27.906Z,950.8
2019-03-08T05:39:37.879Z,950.85
2019-03-08T05:40:47.838Z,950.87
2019-03-08T05:41:57.583Z,950.85
2019-03-08T05:43:07.531Z,950.88
2019-03-08T05:44:17.475Z,950.87
2019-03-08T05:45:27.670Z,950.89
2019-03-08T05:46:37.812Z,950.93
2019-03-08T05:47:48.301Z,950.99
2019-03-08T05:48:58.404Z,950.9
2019-03-08T05:50:08.958Z,950.8
2019-03-08T05:51:19.637Z,950.9
2019-03-08T05:52:30.035Z,950.96
2019-03-08T05:53:40.647Z,950.91
2019-03-08T05:54:50.962Z,950.96
2019-03-08T05:56:01.130Z,951.01
2019-03-08T05:57:11.196Z,951.02
2019-03-08T05:58:21.142Z,951.06
2019-03-08T05:59:31.223Z,951.08
2019-03-08T06:00:41.172Z,951.04
2019-03-08T06:01:51.130Z,951.08
2019-03-08T06:03:01.084Z,951.03
2019-03-08T06:04:10.792Z,951.01
2019-03-08T06:05:20.847Z,950.98
2019-03-08T06:06:30.810Z,951.1
2019-03-08T06:07:40.762Z,951.11
2019-03-08T06:08:50.742Z,951.02
2019-03-08T06:10:00.709Z,951.06
2019-03-08T06:11:10.761Z,951.11
2019-03-08T06:12:20.467Z,951.11
2019-03-08T06:13:30.432Z,951.19
2019-03-08T06:14:40.381Z,951.2
2019-03-08T06:15:50.358Z,951.15
2019-03-08T06:17:00.505Z,951.15
2019-03-08T06:18:10.478Z,951.32
2019-03-08T06:19:20.429Z,951.29
2019-03-08T06:20:30.387Z,951.3
2019-03-08T06:21:40.103Z,951.38
2019-03-08T06:22:50.156Z,951.37
2019-03-08T06:24:00.135Z,951.29
2019-03-08T06:25:10.093Z,951.41
2019-03-08T06:26:20.083Z,951.38
2019-03-08T06:27:30.048Z,951.28
2019-03-08T06:28:40.131Z,951.42
2019-03-08T06:29:50.104Z,951.42
2019-03-08T06:31:00.074Z,951.36
2019-03-08T06:32:10.024Z,951.37
2019-03-08T06:33:19.992Z,951.38
2019-03-08T06:34:30.018Z,951.45
2019-03-08T06:35:40.540Z,951.51
2019-03-08T06:36:50.515Z,951.64
2019-03-08T06:38:00.470Z,951.68
2019-03-08T06:39:10.436Z,951.41
2019-03-08T06:40:20.543Z,951.5
2019-03-08T06:41:30.495Z,951.66
2019-03-08T06:42:40.458Z,951.65
2019-03-08T06:43:50.404Z,951.59
2019-03-08T06:45:00.358Z,951.6
2019-03-08T06:46:10.417Z,951.64
2019-03-08T06:47:20.377Z,951.7
2019-03-08T06:48:30.321Z,951.77
2019-03-08T06:49:40.279Z,951.66
2019-03-08T06:50:50.532Z,951.89
2019-03-08T06:52:01.040Z,951.7
2019-03-08T06:53:11.292Z,951.83
2019-03-08T06:54:21.888Z,951.67
2019-03-08T06:55:32.519Z,951.93
2019-03-08T06:56:42.903Z,952.01
2019-03-08T06:57:53.572Z,952.02
2019-03-08T06:59:03.791Z,952.11
2019-03-08T07:00:13.970Z,951.94
2019-03-08T07:01:24.006Z,952.12
2019-03-08T07:02:33.967Z,952.06
2019-03-08T07:03:43.968Z,951.99
2019-03-08T07:04:53.666Z,952.13
2019-03-08T07:06:03.631Z,952.19
2019-03-08T07:07:13.579Z,952.03
2019-03-08T07:08:23.540Z,952.15
2019-03-08T07:09:33.555Z,952.05
2019-03-08T07:10:43.515Z,952.16
2019-03-08T07:11:53.473Z,952.43
2019-03-08T07:13:03.861Z,952.18
2019-03-08T07:14:13.987Z,952.28
2019-03-08T07:15:23.939Z,952.41
2019-03-08T07:16:33.915Z,952.12
2019-03-08T07:17:43.886Z,952.54
2019-03-08T07:18:53.866Z,952.23
2019-03-08T07:20:03.854Z,952.07
2019-03-08T07:21:13.862Z,951.97
2019-03-08T07:22:23.810Z,952.41
2019-03-08T07:23:33.766Z,952.45
2019-03-08T07:24:43.726Z,951.94
2019-03-08T07:25:54.512Z,952.53
2019-03-08T07:27:04.593Z,952.46
2019-03-08T07:28:14.550Z,952.53
2019-03-08T07:29:24.529Z,952.53
2019-03-08T07:30:34.500Z,952.47
2019-03-08T07:31:44.445Z,952.68
2019-03-08T07:32:54.548Z,952.65
2019-03-08T07:34:04.532Z,952.82
2019-03-08T07:35:16.321Z,952.64
2019-03-08T07:36:26.276Z,952.78
2019-03-08T07:37:36.251Z,952.87
2019-03-08T07:38:47.907Z,952.97
2019-03-08T07:39:57.870Z,952.79
2019-03-08T07:41:07.887Z,952.95
2019-03-08T07:42:17.851Z,952.88
2019-03-08T07:43:27.872Z,953.03
2019-03-08T07:44:37.832Z,952.92
2019-03-08T07:45:47.951Z,952.98
2019-03-08T07:46:58.197Z,952.97
2019-03-08T07:48:08.541Z,952.99
2019-03-08T07:49:19.177Z,952.94
2019-03-08T07:50:30.623Z,952.92
2019-03-08T07:51:41.095Z,953.18
2019-03-08T07:52:51.475Z,952.95
2019-03-08T07:54:01.613Z,953
2019-03-08T07:55:11.756Z,952.9
2019-03-08T07:56:21.760Z,952.96
2019-03-08T07:57:31.770Z,952.87
2019-03-08T07:58:41.732Z,953.13
2019-03-08T07:59:53.839Z,953.01
2019-03-08T08:01:04.079Z,953.21
2019-03-08T08:02:14.179Z,953.29
2019-03-08T08:03:24.157Z,952.96
2019-03-08T08:04:33.894Z,953.2
2019-03-08T08:05:43.856Z,953.23
2019-03-08T08:07:02.886Z,953.22
2019-03-08T08:08:12.908Z,953.27
2019-03-08T08:09:22.871Z,953.26
2019-03-08T08:10:32.837Z,953.17
2019-03-08T08:11:42.785Z,953.13
2019-03-08T08:12:52.734Z,953.42
2019-03-08T08:14:02.737Z,953.15
2019-03-08T08:15:12.693Z,953.35
2019-03-08T08:16:22.673Z,953.38
2019-03-08T08:17:32.638Z,953.28
2019-03-08T08:18:42.352Z,953.48
2019-03-08T08:19:52.450Z,953.43
2019-03-08T08:21:02.402Z,953.43
2019-03-08T08:22:12.405Z,953.52
2019-03-08T08:23:22.414Z,953.38
2019-03-08T08:24:42.916Z,953.54
2019-03-08T08:25:53.428Z,953.59
2019-03-08T08:27:03.789Z,953.65
2019-03-08T08:28:14.718Z,953.56
2019-03-08T08:29:24.827Z,953.52
2019-03-08T08:30:42.713Z,953.51
2019-03-08T08:31:52.683Z,953.58
2019-03-08T08:33:02.651Z,953.69
2019-03-08T08:34:12.614Z,953.63
2019-03-08T08:35:24.738Z,953.47
2019-03-08T08:36:34.796Z,953.56
2019-03-08T08:37:44.767Z,953.61
2019-03-08T08:38:54.749Z,953.56
2019-03-08T08:40:04.690Z,953.45
2019-03-08T08:41:14.635Z,953.67
2019-03-08T08:42:24.606Z,953.51
2019-03-08T08:43:34.563Z,953.52
2019-03-08T08:44:44.529Z,953.69
2019-03-08T08:45:55.989Z,953.64
2019-03-08T08:47:05.690Z,953.86
2019-03-08T08:48:15.645Z,953.67
2019-03-08T08:49:25.610Z,953.68
2019-03-08T08:50:35.733Z,953.8
2019-03-08T08:51:45.763Z,953.79
2019-03-08T08:52:55.730Z,953.57
2019-03-08T08:54:05.844Z,953.76
2019-03-08T08:55:15.807Z,953.77
2019-03-08T08:56:25.786Z,953.68
2019-03-08T08:57:35.741Z,953.74
2019-03-08T08:58:45.707Z,953.7
2019-03-08T08:59:57.028Z,953.72
2019-03-08T09:01:07.108Z,953.8
2019-03-08T09:02:16.826Z,953.76
2019-03-08T09:03:27.035Z,954
2019-03-08T09:04:37.329Z,953.79
2019-03-08T09:05:47.869Z,953.78
2019-03-08T09:06:59.447Z,954.01
2019-03-08T09:08:09.890Z,953.92
2019-03-08T09:09:20.374Z,953.97
2019-03-08T09:10:30.507Z,953.85
2019-03-08T09:11:44.377Z,953.86
2019-03-08T09:13:00.452Z,953.79
2019-03-08T09:14:10.405Z,953.92
2019-03-08T09:15:20.372Z,953.83
2019-03-08T09:16:30.330Z,953.94
2019-03-08T09:17:40.387Z,953.9
2019-03-08T09:18:50.350Z,953.88
2019-03-08T09:20:00.356Z,953.88
2019-03-08T09:21:10.329Z,953.9
2019-03-08T09:22:20.293Z,953.99
2019-03-08T09:23:30.341Z,954.05
2019-03-08T09:24:40.285Z,953.96
2019-03-08T09:25:50.231Z,953.97
2019-03-08T09:27:00.171Z,953.9
2019-03-08T09:28:10.134Z,953.97
2019-03-08T09:29:20.087Z,953.88
2019-03-08T09:30:30.051Z,953.88
2019-03-08T09:31:39.997Z,954.08
2019-03-08T09:32:58.664Z,954.17
2019-03-08T09:34:08.866Z,954.21
2019-03-08T09:35:18.833Z,954.17
2019-03-08T09:36:28.807Z,953.98
2019-03-08T09:37:38.568Z,954.16
2019-03-08T09:38:48.534Z,954.08
2019-03-08T09:39:58.491Z,954.15
2019-03-08T09:41:08.565Z,954.21
2019-03-08T09:42:18.525Z,954.16
2019-03-08T09:43:28.685Z,954.12
2019-03-08T09:44:38.947Z,954.19
2019-03-08T09:45:49.270Z,954.19
2019-03-08T09:46:59.693Z,954.07
2019-03-08T09:48:10.144Z,954.26
2019-03-08T09:49:20.619Z,954.28
2019-03-08T09:50:31.025Z,954.39
2019-03-08T09:51:41.180Z,954.22
2019-03-08T09:52:50.997Z,954.24
2019-03-08T09:54:00.974Z,954.32
2019-03-08T09:55:10.929Z,954.37
2019-03-08T09:56:20.885Z,954.39
2019-03-08T09:57:30.860Z,954.48
2019-03-08T09:58:40.937Z,954.4
2019-03-08T09:59:50.901Z,954.45
2019-03-08T10:01:00.856Z,954.55
2019-03-08T10:02:19.222Z,954.6
2019-03-08T10:03:29.180Z,954.53
2019-03-08T10:04:39.246Z,954.61
2019-03-08T10:05:49.207Z,954.52
2019-03-08T10:06:59.170Z,954.59
2019-03-08T10:08:08.925Z,954.64
2019-03-08T10:09:18.888Z,954.61
2019-03-08T10:10:28.856Z,954.63
2019-03-08T10:11:38.813Z,954.61
2019-03-08T10:12:48.788Z,954.62
2019-03-08T10:13:58.799Z,954.72
2019-03-08T10:15:08.756Z,954.73
2019-03-08T10:16:18.822Z,954.76
2019-03-08T10:17:28.791Z,954.79
2019-03-08T10:18:40.189Z,954.78
2019-03-08T10:19:50.274Z,954.81
2019-03-08T10:21:00.267Z,954.86
2019-03-08T10:22:10.356Z,954.78
2019-03-08T10:23:20.352Z,954.89
2019-03-08T10:24:30.322Z,954.82
2019-03-08T10:25:40.282Z,954.82
2019-03-08T10:26:50.298Z,955
2019-03-08T10:28:00.419Z,954.85
2019-03-08T10:29:10.623Z,954.99
2019-03-08T10:30:21.116Z,954.99
2019-03-08T10:31:32.528Z,955.04
2019-03-08T10:32:43.167Z,955.03
2019-03-08T10:33:53.601Z,955.03
2019-03-08T10:35:04.067Z,954.96
2019-03-08T10:36:25.891Z,955.07
2019-03-08T10:37:35.844Z,955.05
2019-03-08T10:38:46.327Z,955
2019-03-08T10:39:56.474Z,955.14
2019-03-08T10:41:08.451Z,955.11
2019-03-08T10:42:18.410Z,955.19
2019-03-08T10:43:28.363Z,955.17
2019-03-08T10:44:38.466Z,955.24
2019-03-08T10:45:48.408Z,955.23
2019-03-08T10:46:58.117Z,955.17
2019-03-08T10:48:08.080Z,955.25
2019-03-08T10:49:17.823Z,955.21
2019-03-08T10:50:27.875Z,955.24
2019-03-08T10:51:37.840Z,955.24
2019-03-08T10:52:47.807Z,955.3
2019-03-08T10:54:00.511Z,955.22
2019-03-08T10:55:10.902Z,955.3
2019-03-08T10:56:20.917Z,955.3
2019-03-08T10:57:30.881Z,955.25
2019-03-08T10:58:40.843Z,955.44
2019-03-08T10:59:50.874Z,955.43
2019-03-08T11:01:00.839Z,955.37
2019-03-08T11:02:10.848Z,955.43
2019-03-08T11:03:20.805Z,955.5
2019-03-08T11:04:30.806Z,955.52
2019-03-08T11:05:40.768Z,955.5
2019-03-08T11:06:50.747Z,955.57
2019-03-08T11:08:00.733Z,955.51
2019-03-08T11:09:12.326Z,955.56
2019-03-08T11:10:22.683Z,955.47
2019-03-08T11:11:33.152Z,955.54
2019-03-08T11:12:43.697Z,955.57
2019-03-08T11:13:54.322Z,955.59
2019-03-08T11:15:04.647Z,955.61
2019-03-08T11:16:25.057Z,955.59
2019-03-08T11:17:35.067Z,955.78
2019-03-08T11:18:53.504Z,955.72
2019-03-08T11:20:11.523Z,955.65
2019-03-08T11:21:21.485Z,955.69
2019-03-08T11:22:31.688Z,955.69
2019-03-08T11:23:41.664Z,955.75
2019-03-08T11:24:51.629Z,955.86
2019-03-08T11:26:10.511Z,955.85
2019-03-08T11:27:20.462Z,955.87
2019-03-08T11:28:30.419Z,955.88
2019-03-08T11:29:40.383Z,955.92
2019-03-08T11:30:53.871Z,955.9
2019-03-08T11:32:04.621Z,955.93
2019-03-08T11:33:23.418Z,956.05
2019-03-08T11:34:33.380Z,955.98
2019-03-08T11:35:52.399Z,955.95
2019-03-08T11:37:04.130Z,956.02
2019-03-08T11:38:14.234Z,956.04
2019-03-08T11:39:25.634Z,956.11
2019-03-08T11:40:35.602Z,956.07
2019-03-08T11:41:45.657Z,956.12
2019-03-08T11:42:55.639Z,956.16
2019-03-08T11:44:05.608Z,956.21
2019-03-08T11:45:15.573Z,956.13
2019-03-08T11:46:26.772Z,956.23
2019-03-08T11:47:36.735Z,956.22
2019-03-08T11:48:46.711Z,956.26
2019-03-08T11:49:56.669Z,956.34
2019-03-08T11:51:06.644Z,956.34
2019-03-08T11:52:16.597Z,956.35
2019-03-08T11:53:26.564Z,956.35
2019-03-08T11:54:40.680Z,956.39
2019-03-08T11:55:50.955Z,956.33
2019-03-08T11:57:01.917Z,956.44
2019-03-08T11:58:11.843Z,956.4
2019-03-08T11:59:21.898Z,956.44
2019-03-08T12:00:31.869Z,956.5
2019-03-08T12:01:42.143Z,956.47
2019-03-08T12:02:53.216Z,956.45
2019-03-08T12:04:03.557Z,956.6
2019-03-08T12:05:13.839Z,956.57
2019-03-08T12:06:24.184Z,956.55
2019-03-08T12:07:35.370Z,956.58
2019-03-08T12:08:47.750Z,956.58
2019-03-08T12:09:57.705Z,956.57
2019-03-08T12:11:08.056Z,956.59
2019-03-08T12:12:19.406Z,956.57
2019-03-08T12:13:29.367Z,956.63
2019-03-08T12:14:39.959Z,956.57
2019-03-08T12:15:49.940Z,956.68
2019-03-08T12:16:59.936Z,956.68
2019-03-08T12:18:09.895Z,956.71
2019-03-08T12:19:19.853Z,956.68
2019-03-08T12:20:29.560Z,956.68
2019-03-08T12:21:39.281Z,956.78
2019-03-08T12:22:49.290Z,956.75
2019-03-08T12:23:59.249Z,956.83
2019-03-08T12:25:09.206Z,956.86
2019-03-08T12:26:19.178Z,956.87
2019-03-08T12:27:29.275Z,956.88
2019-03-08T12:28:39.294Z,956.88
2019-03-08T12:29:49.254Z,956.87
2019-03-08T12:30:59.223Z,956.86
2019-03-08T12:32:09.194Z,957.02
2019-03-08T12:33:19.161Z,956.9
2019-03-08T12:34:29.145Z,956.91
2019-03-08T12:35:39.120Z,957.09
2019-03-08T12:36:49.074Z,957.01
2019-03-08T12:37:59.044Z,956.9
2019-03-08T12:39:09.008Z,957.04
2019-03-08T12:40:19.070Z,956.92
2019-03-08T12:41:29.052Z,956.95
2019-03-08T12:42:39.022Z,957.15
2019-03-08T12:43:48.988Z,957.09
2019-03-08T12:44:58.955Z,957.08
2019-03-08T12:46:09.030Z,957.08
2019-03-08T12:47:19.232Z,957.15
2019-03-08T12:48:29.451Z,957.19
2019-03-08T12:49:39.903Z,957.13
2019-03-08T12:50:50.253Z,957.14
2019-03-08T12:52:01.614Z,957.18
2019-03-08T12:53:11.700Z,957.15
2019-03-08T12:54:21.916Z,957.16
2019-03-08T12:55:31.688Z,957.19
2019-03-08T12:56:41.386Z,957.23
2019-03-08T12:57:51.244Z,957.18
2019-03-08T12:59:01.223Z,957.2
2019-03-08T13:00:11.217Z,957.2
2019-03-08T13:01:22.737Z,957.28
2019-03-08T13:02:32.692Z,957.25
2019-03-08T13:03:42.699Z,957.24
2019-03-08T13:04:52.663Z,957.32
2019-03-08T13:06:02.634Z,957.22
2019-03-08T13:07:12.603Z,957.4
2019-03-08T13:08:22.551Z,957.33
2019-03-08T13:09:32.668Z,957.48
2019-03-08T13:10:42.630Z,957.44
2019-03-08T13:11:52.615Z,957.59
2019-03-08T13:13:02.569Z,957.57
2019-03-08T13:14:13.549Z,957.6
2019-03-08T13:15:23.580Z,957.53
2019-03-08T13:16:33.540Z,957.56
2019-03-08T13:17:43.514Z,957.59
2019-03-08T13:18:53.476Z,957.69
2019-03-08T13:20:03.456Z,957.64
2019-03-08T13:21:13.465Z,957.64
2019-03-08T13:22:23.424Z,957.69
2019-03-08T13:23:33.377Z,957.61
2019-03-08T13:24:43.350Z,957.72
2019-03-08T13:25:53.315Z,957.71
2019-03-08T13:27:03.423Z,957.75
2019-03-08T13:28:13.385Z,957.75
2019-03-08T13:29:23.339Z,957.75
2019-03-08T13:30:33.305Z,957.72
2019-03-08T13:31:43.328Z,957.8
2019-03-08T13:32:53.436Z,957.79
2019-03-08T13:34:03.385Z,957.87
2019-03-08T13:35:13.349Z,957.95
2019-03-08T13:36:23.312Z,957.93
2019-03-08T13:37:33.535Z,957.9
2019-03-08T13:38:44.162Z,957.93
2019-03-08T13:39:54.498Z,958.08
2019-03-08T13:41:04.892Z,957.98
2019-03-08T13:42:15.298Z,958.03
2019-03-08T13:43:25.580Z,958.02
2019-03-08T13:44:35.964Z,957.97
2019-03-08T13:45:46.174Z,958
2019-03-08T13:46:56.275Z,958.23
2019-03-08T13:48:06.237Z,958.03
2019-03-08T13:49:16.199Z,958.21
2019-03-08T13:50:27.859Z,958.13
2019-03-08T13:51:37.837Z,958.14
2019-03-08T13:52:47.822Z,958.28
2019-03-08T13:53:57.787Z,958.38
2019-03-08T13:55:09.715Z,958.36
2019-03-08T13:56:19.865Z,958.33
2019-03-08T13:57:29.830Z,958.25
2019-03-08T13:58:39.782Z,958.21
2019-03-08T13:59:49.744Z,958.14
2019-03-08T14:00:59.702Z,958.16
2019-03-08T14:02:09.720Z,958.06
2019-03-08T14:03:19.690Z,958.17
2019-03-08T14:04:29.659Z,958.23
2019-03-08T14:05:39.645Z,958.34
2019-03-08T14:06:49.611Z,958.32
2019-03-08T14:07:59.635Z,958.21
2019-03-08T14:09:09.355Z,958.16
2019-03-08T14:10:20.748Z,958.25
2019-03-08T14:11:30.758Z,958.31
2019-03-08T14:12:40.714Z,958.2
2019-03-08T14:13:50.790Z,958.03
2019-03-08T14:15:00.767Z,958.19
2019-03-08T14:16:10.782Z,958.35
2019-03-08T14:17:20.738Z,958.4
2019-03-08T14:18:30.713Z,958.37
2019-03-08T14:19:40.741Z,958.48
2019-03-08T14:20:50.718Z,958.41
2019-03-08T14:22:00.425Z,958.49
2019-03-08T14:23:10.404Z,958.43
2019-03-08T14:24:20.361Z,958.41
2019-03-08T14:25:30.401Z,958.43
2019-03-08T14:26:40.642Z,958.71
2019-03-08T14:27:50.933Z,958.5
2019-03-08T14:29:01.375Z,958.53
2019-03-08T14:30:11.858Z,958.56
2019-03-08T14:31:22.603Z,958.58
2019-03-08T14:32:34.643Z,958.65
2019-03-08T14:33:44.866Z,958.55
2019-03-08T14:34:55.024Z,958.51
2019-03-08T14:36:06.011Z,958.55
2019-03-08T14:37:19.813Z,958.53
2019-03-08T14:38:31.399Z,958.59
2019-03-08T14:39:44.231Z,958.63
2019-03-08T14:40:57.400Z,958.65